createdAt,value
2022-08-16T00:01:16.244Z,99497.59
2022-08-16T00:03:45.348Z,99505.88
2022-08-16T00:06:15.554Z,99503.34
2022-08-16T00:08:45.697Z,99495.41
2022-08-16T00:11:15.783Z,99498.78
2022-08-16T00:13:53.786Z,99500.81
2022-08-16T00:17:06.373Z,99431.47
2022-08-16T00:19:13.644Z,99493.06
2022-08-16T00:21:41.961Z,99487.38
2022-08-16T00:24:11.539Z,99495.13
2022-08-16T00:26:44.504Z,99496.97
2022-08-16T00:29:13.358Z,99456.56
2022-08-16T00:31:58.673Z,99453.53
2022-08-16T00:34:41.867Z,99500.03
2022-08-16T00:37:17.393Z,99496.66
2022-08-16T00:39:47.125Z,99494.81
2022-08-16T00:42:30.459Z,99501.22
2022-08-16T00:45:06.514Z,99496.81
2022-08-16T00:47:36.878Z,99497.66
2022-08-16T00:50:11.462Z,99497.81
2022-08-16T00:52:50.407Z,99495.28
2022-08-16T00:55:20.155Z,99485.53
2022-08-16T00:57:58.613Z,99496.50
2022-08-16T01:00:28.798Z,99503.06
2022-08-16T01:02:57.520Z,99496.50
2022-08-16T01:05:27.320Z,99487.03
2022-08-16T01:07:55.245Z,99496.66
2022-08-16T01:10:31.912Z,99498.50
2022-08-16T01:13:01.620Z,99500.34
2022-08-16T01:15:32.263Z,99496.84
2022-08-16T01:18:00.220Z,99504.09
2022-08-16T01:20:30.490Z,99416.09
2022-08-16T01:23:01.256Z,99489.28
2022-08-16T01:25:34.161Z,99477.84
2022-08-16T01:28:03.294Z,99507.97
2022-08-16T01:30:34.217Z,99435.13
2022-08-16T01:33:15.033Z,99520.63
2022-08-16T01:35:46.651Z,99415.41
2022-08-16T01:38:21.415Z,99516.59
2022-08-16T01:40:55.727Z,99509.50
2022-08-16T01:43:23.698Z,99515.06
2022-08-16T01:45:57.850Z,99517.94
2022-08-16T01:48:28.191Z,99482.63
2022-08-16T01:51:08.832Z,99463.06
2022-08-16T01:53:40.675Z,99497.25
2022-08-16T01:56:22.077Z,99527.56
2022-08-16T01:58:51.543Z,99525.38
2022-08-16T02:01:19.316Z,99524.53
2022-08-16T02:03:50.336Z,99528.25
2022-08-16T02:06:33.920Z,99529.06
2022-08-16T02:09:05.257Z,99530.09
2022-08-16T02:11:47.781Z,99524.19
2022-08-16T02:14:21.450Z,99530.28
2022-08-16T02:16:49.473Z,99522.19
2022-08-16T02:19:18.487Z,99523.38
2022-08-16T02:22:07.631Z,99525.03
2022-08-16T02:24:40.933Z,99529.75
2022-08-16T02:27:11.631Z,99527.06
2022-08-16T02:29:41.337Z,99522.69
2022-08-16T02:32:50.536Z,99515.97
2022-08-16T02:34:57.741Z,99523.03
2022-08-16T02:37:52.089Z,99521.38
2022-08-16T02:40:16.411Z,99515.81
2022-08-16T02:42:45.666Z,99524.06
2022-08-16T02:45:18.176Z,99526.75
2022-08-16T02:48:00.107Z,99518.66
2022-08-16T02:50:54.983Z,99518.66
2022-08-16T02:53:18.281Z,99520.50
2022-08-16T02:55:51.478Z,99428.59
2022-08-16T02:58:24.764Z,99521.53
2022-08-16T03:00:53.275Z,99522.72
2022-08-16T03:03:24.932Z,99525.59
2022-08-16T03:05:53.181Z,99454.50
2022-08-16T03:08:49.796Z,99467.66
2022-08-16T03:11:16.805Z,99512.28
2022-08-16T03:13:47.730Z,99515.31
2022-08-16T03:16:38.182Z,99502.84
2022-08-16T03:19:06.787Z,99511.09
2022-08-16T03:21:37.800Z,99493.06
2022-08-16T03:24:28.875Z,99512.97
2022-08-16T03:26:57.993Z,99513.97
2022-08-16T03:29:30.332Z,99514.66
2022-08-16T03:31:59.053Z,99515.16
2022-08-16T03:34:27.421Z,99507.25
2022-08-16T03:36:55.418Z,99512.47
2022-08-16T03:39:23.265Z,99514.31
2022-08-16T03:41:51.579Z,99438.50
2022-08-16T03:44:44.404Z,99503.03
2022-08-16T03:47:18.600Z,99510.97
2022-08-16T03:49:51.796Z,99512.28
2022-08-16T03:52:20.294Z,99516.69
2022-08-16T03:54:57.670Z,99515.00
2022-08-16T03:57:31.748Z,99517.38
2022-08-16T04:00:35.371Z,99431.13
2022-08-16T04:03:02.730Z,99520.56
2022-08-16T04:05:33.185Z,99518.88
2022-08-16T04:08:02.218Z,99519.72
2022-08-16T04:10:49.970Z,99525.28
2022-08-16T04:13:20.425Z,99524.44
2022-08-16T04:16:08.842Z,99535.22
2022-08-16T04:18:38.782Z,99512.28
2022-08-16T04:21:06.727Z,99522.44
2022-08-16T04:23:34.453Z,99540.41
2022-08-16T04:26:04.781Z,99535.03
2022-08-16T04:28:55.893Z,99524.09
2022-08-16T04:31:21.544Z,99525.97
2022-08-16T04:33:50.581Z,99521.22
2022-08-16T04:36:19.958Z,99530.81
2022-08-16T04:38:49.954Z,99477.41
2022-08-16T04:41:17.989Z,99535.19
2022-08-16T04:43:45.815Z,99471.88
2022-08-16T04:47:00.063Z,99547.84
2022-08-16T04:49:08.049Z,99552.38
2022-08-16T04:51:36.284Z,99556.28
2022-08-16T04:54:04.114Z,99468.50
2022-08-16T04:56:31.839Z,99545.66
2022-08-16T04:58:59.575Z,99558.28
2022-08-16T05:01:57.927Z,99555.59
2022-08-16T05:04:19.689Z,99554.91
2022-08-16T05:06:47.743Z,99555.59
2022-08-16T05:09:16.233Z,99547.50
2022-08-16T05:11:44.241Z,99558.28
2022-08-16T05:14:11.977Z,99563.50
2022-08-16T05:16:48.129Z,99568.91
2022-08-16T05:19:21.328Z,99569.75
2022-08-16T05:21:49.049Z,99580.53
2022-08-16T05:24:22.171Z,99577.84
2022-08-16T05:26:52.616Z,99579.34
2022-08-16T05:29:20.494Z,99579.34
2022-08-16T05:31:53.364Z,99586.13
2022-08-16T05:34:22.723Z,99586.13
2022-08-16T05:36:51.231Z,99592.34
2022-08-16T05:39:20.514Z,99591.84
2022-08-16T05:41:51.583Z,99590.44
2022-08-16T05:44:23.122Z,99595.19
2022-08-16T05:46:53.478Z,99591.63
2022-08-16T05:49:23.743Z,99604.59
2022-08-16T05:51:51.455Z,99598.50
2022-08-16T05:54:25.234Z,99589.09
2022-08-16T05:56:53.676Z,99600.41
2022-08-16T05:59:21.976Z,99602.09
2022-08-16T06:01:51.921Z,99607.53
2022-08-16T06:04:36.588Z,99607.53
2022-08-16T06:07:09.113Z,99608.31
2022-08-16T06:09:52.586Z,99604.44
2022-08-16T06:12:26.860Z,99606.84
2022-08-16T06:14:58.968Z,99610.84
2022-08-16T06:17:41.808Z,99607.63
2022-08-16T06:20:14.637Z,99503.56
2022-08-16T06:22:47.646Z,99615.38
2022-08-16T06:25:35.959Z,99620.16
2022-08-16T06:28:08.885Z,99523.66
2022-08-16T06:30:44.153Z,99624.22
2022-08-16T06:33:22.104Z,99624.41
2022-08-16T06:35:51.001Z,99621.38
2022-08-16T06:38:34.060Z,99594.69
2022-08-16T06:41:04.054Z,99543.75
2022-08-16T06:43:32.003Z,99617.00
2022-08-16T06:46:00.069Z,99615.34
2022-08-16T06:48:32.456Z,99613.34
2022-08-16T06:51:01.226Z,99620.28
2022-08-16T06:53:35.584Z,99620.63
2022-08-16T06:56:06.014Z,99619.63
2022-08-16T06:58:41.523Z,99615.44
2022-08-16T07:01:10.016Z,99632.16
2022-08-16T07:03:54.902Z,99580.88
2022-08-16T07:06:26.450Z,99636.69
2022-08-16T07:08:56.122Z,99644.78
2022-08-16T07:11:47.447Z,99639.34
2022-08-16T07:14:25.117Z,99638.84
2022-08-16T07:16:55.832Z,99647.13
2022-08-16T07:20:03.990Z,99600.78
2022-08-16T07:22:37.771Z,99652.38
2022-08-16T07:25:03.096Z,99651.19
2022-08-16T07:27:33.621Z,99646.09
2022-08-16T07:30:01.676Z,99633.44
2022-08-16T07:32:31.514Z,99638.84
2022-08-16T07:34:59.287Z,99641.88
2022-08-16T07:37:26.983Z,99640.38
2022-08-16T07:39:55.010Z,99651.66
2022-08-16T07:42:28.669Z,99631.25
2022-08-16T07:45:02.711Z,99652.03
2022-08-16T07:47:31.347Z,99627.41
2022-08-16T07:49:59.786Z,99646.75
2022-08-16T07:52:29.829Z,99658.19
2022-08-16T07:54:57.919Z,99646.88
2022-08-16T07:57:27.031Z,99653.47
2022-08-16T07:59:57.391Z,99651.25
2022-08-16T08:02:27.451Z,99655.81
2022-08-16T08:04:55.737Z,99652.78
2022-08-16T08:07:28.078Z,99618.91
2022-08-16T08:09:56.132Z,99657.81
2022-08-16T08:12:31.598Z,99655.06
2022-08-16T08:15:05.924Z,99586.84
2022-08-16T08:17:42.023Z,99675.34
2022-08-16T08:20:12.913Z,99613.13
2022-08-16T08:22:48.836Z,99655.75
2022-08-16T08:25:18.338Z,99650.53
2022-08-16T08:27:46.936Z,99655.53
2022-08-16T08:30:49.643Z,99655.34
2022-08-16T08:33:04.298Z,99659.63
2022-08-16T08:35:33.399Z,99664.13
2022-08-16T08:38:01.335Z,99662.66
2022-08-16T08:40:30.093Z,99628.28
2022-08-16T08:43:00.473Z,99612.13
2022-08-16T08:45:46.556Z,99666.06
2022-08-16T08:48:34.597Z,99635.91
2022-08-16T08:51:03.870Z,99666.56
2022-08-16T08:53:32.697Z,99668.75
2022-08-16T08:56:01.582Z,99675.06
2022-08-16T08:58:55.003Z,99672.56
2022-08-16T09:01:31.716Z,99681.84
2022-08-16T09:04:05.065Z,99636.97
2022-08-16T09:06:33.020Z,99676.38
2022-08-16T09:09:01.002Z,99680.72
2022-08-16T09:11:40.668Z,99666.50
2022-08-16T09:14:09.315Z,99678.63
2022-08-16T09:17:01.314Z,99674.41
2022-08-16T09:19:34.067Z,99649.41
2022-08-16T09:22:02.296Z,99678.41
2022-08-16T09:24:52.088Z,99678.06
2022-08-16T09:27:18.096Z,99676.03
2022-08-16T09:29:46.793Z,99677.03
2022-08-16T09:32:30.760Z,99674.16
2022-08-16T09:34:59.030Z,99672.91
2022-08-16T09:37:29.153Z,99680.28
2022-08-16T09:39:59.674Z,99681.22
2022-08-16T09:42:28.386Z,99675.13
2022-08-16T09:45:10.831Z,99685.78
2022-08-16T09:47:56.328Z,99683.28
2022-08-16T09:50:33.169Z,99685.97
2022-08-16T09:53:07.721Z,99658.88
2022-08-16T09:55:44.475Z,99686.84
2022-08-16T09:58:41.851Z,99695.78
2022-08-16T10:01:01.012Z,99690.34
2022-08-16T10:03:30.511Z,99687.13
2022-08-16T10:05:58.508Z,99624.22
2022-08-16T10:08:27.542Z,99678.94
2022-08-16T10:11:13.369Z,99678.97
2022-08-16T10:13:43.820Z,99643.28
2022-08-16T10:19:00.962Z,99678.41
2022-08-16T10:21:32.313Z,99676.38
2022-08-16T10:24:00.133Z,99679.56
2022-08-16T10:27:19.945Z,99692.56
2022-08-16T10:29:20.018Z,99685.47
2022-08-16T10:31:53.181Z,99622.31
2022-08-16T10:34:30.999Z,99692.34
2022-08-16T10:37:00.522Z,99692.84
2022-08-16T10:39:32.923Z,99685.38
2022-08-16T10:42:08.980Z,99684.19
2022-08-16T10:44:36.694Z,99690.25
2022-08-16T10:47:04.600Z,99687.41
2022-08-16T10:49:34.437Z,99686.41
2022-08-16T10:52:18.850Z,99694.16
2022-08-16T10:57:35.090Z,99686.84
2022-08-16T11:00:05.149Z,99681.28
2022-08-16T11:02:59.018Z,99682.13
2022-08-16T11:05:22.929Z,99680.09
2022-08-16T11:07:53.415Z,99627.50
2022-08-16T11:19:04.646Z,99689.34
2022-08-16T11:21:37.502Z,99682.91
2022-08-16T11:24:41.596Z,99650.41
2022-08-16T11:27:22.973Z,99688.13
2022-08-16T11:29:52.947Z,99684.44
2022-08-16T11:32:22.650Z,99681.53
2022-08-16T11:35:10.217Z,99687.13
2022-08-16T11:40:32.724Z,99678.56
2022-08-16T11:43:01.329Z,99696.06
2022-08-16T11:45:30.223Z,99699.81
2022-08-16T11:48:01.792Z,99697.28
2022-08-16T11:50:33.276Z,99695.59
2022-08-16T11:53:03.688Z,99701.84
2022-08-16T11:55:31.905Z,99688.50
2022-08-16T12:00:42.638Z,99695.84
2022-08-16T12:03:11.770Z,99696.56
2022-08-16T12:05:40.450Z,99694.88
2022-08-16T12:08:09.919Z,99696.75
2022-08-16T12:10:40.937Z,99693.00
2022-08-16T12:13:11.733Z,99635.56
2022-08-16T12:15:40.890Z,99648.72
2022-08-16T12:18:08.974Z,99655.06
2022-08-16T12:20:38.549Z,99690.63
2022-08-16T12:23:07.745Z,99694.16
2022-08-16T12:25:35.864Z,99691.28
2022-08-16T12:28:05.604Z,99687.53
2022-08-16T12:30:38.444Z,99690.06
2022-08-16T12:33:09.346Z,99695.47
2022-08-16T12:35:37.947Z,99695.13
2022-08-16T12:38:37.879Z,99695.13
2022-08-16T12:40:56.977Z,99695.97
2022-08-16T12:43:25.398Z,99696.78
2022-08-16T12:45:54.265Z,99689.72
2022-08-16T12:48:43.560Z,99696.16
2022-08-16T12:51:23.964Z,99694.44
2022-08-16T12:53:52.666Z,99698.19
2022-08-16T12:56:20.776Z,99689.22
2022-08-16T12:58:51.904Z,99700.72
2022-08-16T13:01:22.785Z,99693.44
2022-08-16T13:04:11.548Z,99690.06
2022-08-16T13:06:43.294Z,99691.91
2022-08-16T13:09:23.397Z,99692.41
2022-08-16T13:12:00.046Z,99626.19
2022-08-16T13:14:32.104Z,99644.56
2022-08-16T13:17:01.517Z,99681.28
2022-08-16T13:20:03.462Z,99685.69
2022-08-16T13:22:20.159Z,99689.72
2022-08-16T13:24:47.886Z,99686.25
2022-08-16T13:27:15.736Z,99691.44
2022-08-16T13:29:45.146Z,99683.56
2022-08-16T13:32:40.226Z,99611.72
2022-08-16T13:35:07.609Z,99689.97
2022-08-16T13:37:39.778Z,99685.53
2022-08-16T13:40:19.764Z,99686.03
2022-08-16T13:42:48.010Z,99676.25
2022-08-16T13:45:15.984Z,99680.44
2022-08-16T13:47:43.863Z,99681.28
2022-08-16T13:50:13.217Z,99678.66
2022-08-16T13:52:41.282Z,99671.84
2022-08-16T13:55:17.678Z,99605.84
2022-08-16T13:58:35.087Z,99673.31
2022-08-16T14:00:34.266Z,99675.84
2022-08-16T14:03:02.764Z,99674.19
2022-08-16T14:05:31.852Z,99674.81
2022-08-16T14:08:00.905Z,99670.91
2022-08-16T14:10:31.066Z,99668.00
2022-08-16T14:13:01.237Z,99659.50
2022-08-16T14:15:29.597Z,99631.28
2022-08-16T14:18:17.018Z,99657.22
2022-08-16T14:20:51.140Z,99652.47
2022-08-16T14:23:23.688Z,99618.22
2022-08-16T14:25:53.965Z,99653.56
2022-08-16T14:28:23.751Z,99656.38
2022-08-16T14:30:54.035Z,99660.56
2022-08-16T14:33:21.754Z,99661.03
2022-08-16T14:35:51.026Z,99662.13
2022-08-16T14:38:23.535Z,99661.50
2022-08-16T14:40:55.538Z,99656.72
2022-08-16T14:43:23.886Z,99663.00
2022-08-16T14:45:54.664Z,99654.13
2022-08-16T14:48:25.940Z,99596.97
2022-08-16T14:50:55.756Z,99656.53
2022-08-16T14:53:23.955Z,99658.88
2022-08-16T14:55:51.798Z,99664.72
2022-08-16T14:58:20.223Z,99662.00
2022-08-16T15:01:03.039Z,99659.31
2022-08-16T15:03:33.002Z,99658.28
2022-08-16T15:06:02.479Z,99665.59
2022-08-16T15:08:36.713Z,99663.72
2022-08-16T15:11:05.509Z,99659.75
2022-08-16T15:13:33.309Z,99642.13
2022-08-16T15:16:02.983Z,99662.81
2022-08-16T15:18:32.316Z,99671.03
2022-08-16T15:21:00.370Z,99675.22
2022-08-16T15:23:31.606Z,99677.16
2022-08-16T15:26:03.832Z,99672.56
2022-08-16T15:28:32.453Z,99675.94
2022-08-16T15:31:04.001Z,99673.66
2022-08-16T15:33:32.642Z,99678.53
2022-08-16T15:36:00.669Z,99674.44
2022-08-16T15:38:54.935Z,99681.13
2022-08-16T15:41:32.537Z,99644.97
2022-08-16T15:44:05.558Z,99671.34
2022-08-16T15:46:55.523Z,99671.63
2022-08-16T15:49:36.969Z,99633.16
2022-08-16T15:52:10.519Z,99672.72
2022-08-16T15:54:52.674Z,99661.84
2022-08-16T15:57:21.712Z,99637.81
2022-08-16T15:59:52.865Z,99672.56
2022-08-16T16:02:29.252Z,99646.53
2022-08-16T16:05:02.517Z,99672.84
2022-08-16T16:07:33.719Z,99678.88
2022-08-16T16:10:13.530Z,99675.78
2022-08-16T16:12:51.630Z,99674.38
2022-08-16T16:15:29.281Z,99677.72
2022-08-16T16:17:57.342Z,99675.19
2022-08-16T16:20:27.055Z,99675.38
2022-08-16T16:22:56.770Z,99678.50
2022-08-16T16:25:28.276Z,99684.78
2022-08-16T16:27:59.623Z,99686.44
2022-08-16T16:30:38.222Z,99676.44
2022-08-16T16:33:15.846Z,99632.75
2022-08-16T16:35:56.597Z,99677.91
2022-08-16T16:38:26.409Z,99639.50
2022-08-16T16:40:55.762Z,99687.38
2022-08-16T16:43:26.091Z,99674.59
2022-08-16T16:45:59.545Z,99684.44
2022-08-16T16:48:29.497Z,99681.56
2022-08-16T16:51:05.006Z,99687.63
2022-08-16T16:53:37.820Z,99686.81
2022-08-16T16:56:10.517Z,99687.81
2022-08-16T16:58:57.940Z,99688.66
2022-08-16T17:01:41.501Z,99679.16
2022-08-16T17:04:22.253Z,99693.19
2022-08-16T17:06:53.453Z,99650.34
2022-08-16T17:09:24.994Z,99699.00
2022-08-16T17:11:55.104Z,99695.84
2022-08-16T17:14:33.613Z,99697.09
2022-08-16T17:17:06.168Z,99701.66
2022-08-16T17:19:33.970Z,99691.59
2022-08-16T17:22:14.895Z,99674.34
2022-08-16T17:24:45.080Z,99696.81
2022-08-16T17:27:17.701Z,99665.50
2022-08-16T17:29:46.964Z,99704.97
2022-08-16T17:32:33.914Z,99706.41
2022-08-16T17:35:11.634Z,99687.41
2022-08-16T17:37:51.703Z,99715.16
2022-08-16T17:40:40.734Z,99656.22
2022-08-16T17:43:10.582Z,99723.81
2022-08-16T17:45:38.310Z,99724.84
2022-08-16T17:48:06.471Z,99718.09
2022-08-16T17:50:34.167Z,99725.63
2022-08-16T17:53:03.664Z,99730.78
2022-08-16T17:55:32.245Z,99688.06
2022-08-16T17:57:59.948Z,99729.19
2022-08-16T18:00:29.524Z,99681.66
2022-08-16T18:02:58.598Z,99728.47
2022-08-16T18:05:27.192Z,99737.00
2022-08-16T18:07:55.101Z,99737.59
2022-08-16T18:10:33.413Z,99694.03
2022-08-16T18:13:04.535Z,99683.66
2022-08-16T18:15:36.956Z,99736.22
2022-08-16T18:18:04.979Z,99729.47
2022-08-16T18:20:50.154Z,99735.06
2022-08-16T18:23:19.207Z,99748.19
2022-08-16T18:25:50.318Z,99746.69
2022-08-16T18:28:18.151Z,99742.50
2022-08-16T18:30:51.512Z,99750.16
2022-08-16T18:33:20.320Z,99746.81
2022-08-16T18:35:48.099Z,99754.28
2022-08-16T18:38:15.838Z,99696.41
2022-08-16T18:40:43.543Z,99756.72
2022-08-16T18:43:12.234Z,99749.41
2022-08-16T18:45:41.688Z,99758.28
2022-08-16T18:48:10.861Z,99764.09
2022-08-16T18:51:04.547Z,99771.56
2022-08-16T18:53:27.928Z,99769.41
2022-08-16T18:55:57.240Z,99742.88
2022-08-16T18:58:25.050Z,99780.63
2022-08-16T19:00:56.446Z,99781.84
2022-08-16T19:03:27.462Z,99788.50
2022-08-16T19:05:57.079Z,99748.09
2022-08-16T19:08:24.899Z,99799.72
2022-08-16T19:10:52.715Z,99768.09
2022-08-16T19:13:21.885Z,99801.09
2022-08-16T19:15:50.817Z,99798.75
2022-08-16T19:18:18.553Z,99804.53
2022-08-16T19:20:47.824Z,99812.03
2022-08-16T19:23:17.315Z,99809.53
2022-08-16T19:25:49.624Z,99810.72
2022-08-16T19:28:48.931Z,99805.28
2022-08-16T19:31:12.279Z,99820.25
2022-08-16T19:33:40.555Z,99821.28
2022-08-16T19:36:11.755Z,99828.06
2022-08-16T19:38:58.908Z,99826.41
2022-08-16T19:41:32.765Z,99828.44
2022-08-16T19:44:00.456Z,99834.91
2022-08-16T19:46:28.177Z,99835.94
2022-08-16T19:48:55.876Z,99835.94
2022-08-16T19:51:24.922Z,99837.13
2022-08-16T19:53:52.670Z,99840.84
2022-08-16T19:56:23.139Z,99841.00
2022-08-16T19:59:17.386Z,99837.63
2022-08-16T20:01:42.325Z,99845.75
2022-08-16T20:04:12.048Z,99838.66
2022-08-16T20:06:41.494Z,99846.31
2022-08-16T20:09:10.360Z,99846.66
2022-08-16T20:11:42.323Z,99843.97
2022-08-16T20:14:10.037Z,99845.66
2022-08-16T20:16:37.753Z,99843.13
2022-08-16T20:19:05.651Z,99851.44
2022-08-16T20:21:33.376Z,99848.91
2022-08-16T20:24:32.022Z,99849.09
2022-08-16T20:26:50.109Z,99853.84
2022-08-16T20:29:17.826Z,99859.44
2022-08-16T20:31:45.608Z,99852.19
2022-08-16T20:34:15.608Z,99860.47
2022-08-16T20:36:43.349Z,99859.81
2022-08-16T20:39:13.458Z,99860.00
2022-08-16T20:41:41.472Z,99860.84
2022-08-16T20:44:10.293Z,99858.31
2022-08-16T20:46:39.007Z,99861.22
2022-08-16T20:49:09.128Z,99804.06
2022-08-16T20:51:46.754Z,99839.16
2022-08-16T20:54:18.832Z,99870.91
2022-08-16T20:56:46.555Z,99865.66
2022-08-16T20:59:14.263Z,99872.09
2022-08-16T21:01:46.773Z,99879.38
2022-08-16T21:04:18.810Z,99874.16
2022-08-16T21:06:54.266Z,99877.84
2022-08-16T21:09:24.899Z,99826.78
2022-08-16T21:11:52.886Z,99886.69
2022-08-16T21:14:20.581Z,99886.88
2022-08-16T21:16:48.307Z,99888.09
2022-08-16T21:19:15.998Z,99895.00
2022-08-16T21:21:43.712Z,99888.94
2022-08-16T21:24:11.531Z,99890.78
2022-08-16T21:26:40.645Z,99889.13
2022-08-16T21:29:17.831Z,99891.16
2022-08-16T21:31:45.536Z,99897.59
2022-08-16T21:34:13.219Z,99901.31
2022-08-16T21:36:40.955Z,99895.91
2022-08-16T21:39:08.646Z,99901.47
2022-08-16T21:41:38.371Z,99892.19
2022-08-16T21:44:07.870Z,99895.59
2022-08-16T21:46:35.676Z,99901.03
2022-08-16T21:49:04.660Z,99894.03
2022-08-16T21:51:32.398Z,99900.47
2022-08-16T21:54:00.129Z,99892.53
2022-08-16T21:56:28.785Z,99895.44
2022-08-16T21:58:56.492Z,99894.56
2022-08-16T22:01:26.436Z,99892.91
2022-08-16T22:04:36.204Z,99844.34
2022-08-16T22:06:42.439Z,99897.63
2022-08-16T22:09:10.661Z,99897.81
2022-08-16T22:11:38.563Z,99896.47
2022-08-16T22:14:06.287Z,99911.69
2022-08-16T22:16:36.324Z,99826.84
2022-08-16T22:19:05.172Z,99901.03
2022-08-16T22:21:33.141Z,99847.44
2022-08-16T22:24:00.874Z,99911.22
2022-08-16T22:26:30.448Z,99913.94
2022-08-16T22:28:59.916Z,99912.41
2022-08-16T22:31:27.650Z,99925.94
2022-08-16T22:33:57.291Z,99913.44
2022-08-16T22:36:28.425Z,99915.47
2022-08-16T22:38:58.004Z,99921.72
2022-08-16T22:41:26.389Z,99920.88
2022-08-16T22:43:54.172Z,99909.75
2022-08-16T22:46:21.924Z,99906.88
2022-08-16T22:48:50.768Z,99859.66
2022-08-16T22:51:20.397Z,99912.47
2022-08-16T22:53:48.126Z,99921.75
2022-08-16T22:56:15.992Z,99924.44
2022-08-16T22:58:43.764Z,99913.34
2022-08-16T23:01:13.205Z,99922.78
2022-08-16T23:03:41.281Z,99919.38
2022-08-16T23:06:09.103Z,99918.75
2022-08-16T23:08:40.973Z,99916.03
2022-08-16T23:11:09.257Z,99916.03
2022-08-16T23:13:36.994Z,99916.22
2022-08-16T23:16:11.199Z,99911.97
2022-08-16T23:18:40.384Z,99867.75
2022-08-16T23:21:09.000Z,99907.59
2022-08-16T23:23:38.554Z,99846.81
2022-08-16T23:26:44.501Z,99909.25
2022-08-16T23:28:54.057Z,99908.78
2022-08-16T23:31:21.771Z,99908.97
2022-08-16T23:33:49.474Z,99916.22
2022-08-16T23:36:17.183Z,99910.81
2022-08-16T23:38:46.210Z,99903.91
2022-08-16T23:41:13.924Z,99903.91
2022-08-16T23:43:43.257Z,99897.63
2022-08-16T23:46:13.537Z,99862.38
2022-08-16T23:49:57.514Z,99899.84
2022-08-16T23:51:29.039Z,99892.75
2022-08-16T23:53:58.151Z,99898.34
2022-08-16T23:56:25.929Z,99892.75
2022-08-16T23:58:58.289Z,99834.69
